sensor_id;sensor_type;location;lat;lon;timestamp;temperature;humidity
7972;DHT22;4031;49.758;6.120;2024-03-02T00:02:14;6.50;99.90
7972;DHT22;4031;49.758;6.120;2024-03-02T00:04:40;6.60;99.90
7972;DHT22;4031;49.758;6.120;2024-03-02T00:07:09;6.60;99.90
7972;DHT22;4031;49.758;6.120;2024-03-02T00:09:36;6.50;99.90
7972;DHT22;4031;49.758;6.120;2024-03-02T00:12:02;6.60;99.90
7972;DHT22;4031;49.758;6.120;2024-03-02T00:14:31;6.60;99.90
7972;DHT22;4031;49.758;6.120;2024-03-02T00:16:57;6.60;99.90
7972;DHT22;4031;49.758;6.120;2024-03-02T00:19:23;6.60;99.90
7972;DHT22;4031;49.758;6.120;2024-03-02T00:21:49;6.50;99.90
7972;DHT22;4031;49.758;6.120;2024-03-02T00:26:47;6.40;99.90
7972;DHT22;4031;49.758;6.120;2024-03-02T00:29:15;6.40;99.90
7972;DHT22;4031;49.758;6.120;2024-03-02T00:31:43;6.30;99.90
7972;DHT22;4031;49.758;6.120;2024-03-02T00:34:11;6.30;99.90
7972;DHT22;4031;49.758;6.120;2024-03-02T00:36:38;6.30;99.90
7972;DHT22;4031;49.758;6.120;2024-03-02T00:39:04;6.30;99.90
7972;DHT22;4031;49.758;6.120;2024-03-02T00:41:33;6.40;99.90
7972;DHT22;4031;49.758;6.120;2024-03-02T00:44:03;6.40;99.90
7972;DHT22;4031;49.758;6.120;2024-03-02T00:46:35;6.50;99.90
7972;DHT22;4031;49.758;6.120;2024-03-02T00:49:03;6.60;99.90
7972;DHT22;4031;49.758;6.120;2024-03-02T00:51:41;6.80;99.90
7972;DHT22;4031;49.758;6.120;2024-03-02T00:54:13;6.90;99.90
7972;DHT22;4031;49.758;6.120;2024-03-02T00:56:41;7.00;99.90
7972;DHT22;4031;49.758;6.120;2024-03-02T00:59:07;7.00;99.90
7972;DHT22;4031;49.758;6.120;2024-03-02T01:01:34;7.10;99.90
7972;DHT22;4031;49.758;6.120;2024-03-02T01:04:00;7.10;99.90
7972;DHT22;4031;49.758;6.120;2024-03-02T01:06:26;7.10;99.90
7972;DHT22;4031;49.758;6.120;2024-03-02T01:08:51;7.20;99.90
7972;DHT22;4031;49.758;6.120;2024-03-02T01:11:17;7.20;99.90
7972;DHT22;4031;49.758;6.120;2024-03-02T01:13:47;7.10;99.90
7972;DHT22;4031;49.758;6.120;2024-03-02T01:16:13;7.10;99.90
7972;DHT22;4031;49.758;6.120;2024-03-02T01:18:41;7.00;99.90
7972;DHT22;4031;49.758;6.120;2024-03-02T01:21:07;7.00;99.90
7972;DHT22;4031;49.758;6.120;2024-03-02T01:23:33;7.00;99.90
7972;DHT22;4031;49.758;6.120;2024-03-02T01:25:59;6.90;99.90
7972;DHT22;4031;49.758;6.120;2024-03-02T01:28:24;6.90;99.90
7972;DHT22;4031;49.758;6.120;2024-03-02T01:30:50;6.90;99.90
7972;DHT22;4031;49.758;6.120;2024-03-02T01:33:19;6.90;99.90
7972;DHT22;4031;49.758;6.120;2024-03-02T01:35:45;6.90;99.90
7972;DHT22;4031;49.758;6.120;2024-03-02T01:38:11;6.90;99.90
7972;DHT22;4031;49.758;6.120;2024-03-02T01:40:38;6.90;99.90
7972;DHT22;4031;49.758;6.120;2024-03-02T01:43:05;6.90;99.90
7972;DHT22;4031;49.758;6.120;2024-03-02T01:45:31;6.90;99.90
7972;DHT22;4031;49.758;6.120;2024-03-02T01:47:58;6.90;99.90
7972;DHT22;4031;49.758;6.120;2024-03-02T01:50:32;6.90;99.90
7972;DHT22;4031;49.758;6.120;2024-03-02T01:52:59;6.90;99.90
7972;DHT22;4031;49.758;6.120;2024-03-02T01:55:25;6.90;99.90
7972;DHT22;4031;49.758;6.120;2024-03-02T01:57:52;6.90;99.90
7972;DHT22;4031;49.758;6.120;2024-03-02T02:00:20;6.80;99.90
7972;DHT22;4031;49.758;6.120;2024-03-02T02:02:46;6.80;99.90
7972;DHT22;4031;49.758;6.120;2024-03-02T02:05:13;6.80;99.90
7972;DHT22;4031;49.758;6.120;2024-03-02T02:07:40;6.80;99.90
7972;DHT22;4031;49.758;6.120;2024-03-02T02:10:07;6.80;99.90
7972;DHT22;4031;49.758;6.120;2024-03-02T02:12:35;6.70;99.90
7972;DHT22;4031;49.758;6.120;2024-03-02T02:15:01;6.70;99.90
7972;DHT22;4031;49.758;6.120;2024-03-02T02:17:26;6.70;99.90
7972;DHT22;4031;49.758;6.120;2024-03-02T02:19:52;6.60;99.90
7972;DHT22;4031;49.758;6.120;2024-03-02T02:22:18;6.60;99.90
7972;DHT22;4031;49.758;6.120;2024-03-02T02:24:44;6.60;99.90
7972;DHT22;4031;49.758;6.120;2024-03-02T02:27:09;6.60;99.90
7972;DHT22;4031;49.758;6.120;2024-03-02T02:29:35;6.60;99.90
7972;DHT22;4031;49.758;6.120;2024-03-02T02:32:02;6.60;99.90
7972;DHT22;4031;49.758;6.120;2024-03-02T02:34:28;6.80;99.90
7972;DHT22;4031;49.758;6.120;2024-03-02T02:36:55;6.60;99.90
7972;DHT22;4031;49.758;6.120;2024-03-02T02:39:21;6.70;99.90
7972;DHT22;4031;49.758;6.120;2024-03-02T02:41:50;6.60;99.90
7972;DHT22;4031;49.758;6.120;2024-03-02T02:44:16;6.60;99.90
7972;DHT22;4031;49.758;6.120;2024-03-02T02:46:42;6.60;99.90
7972;DHT22;4031;49.758;6.120;2024-03-02T02:49:08;6.60;99.90
7972;DHT22;4031;49.758;6.120;2024-03-02T02:51:33;6.60;99.90
7972;DHT22;4031;49.758;6.120;2024-03-02T02:53:59;6.60;99.90
7972;DHT22;4031;49.758;6.120;2024-03-02T02:56:25;6.60;99.90
7972;DHT22;4031;49.758;6.120;2024-03-02T02:58:51;6.50;99.90
7972;DHT22;4031;49.758;6.120;2024-03-02T03:01:17;6.50;99.90
7972;DHT22;4031;49.758;6.120;2024-03-02T03:03:43;6.50;99.90
7972;DHT22;4031;49.758;6.120;2024-03-02T03:06:10;6.50;99.90
7972;DHT22;4031;49.758;6.120;2024-03-02T03:08:36;6.50;99.90
7972;DHT22;4031;49.758;6.120;2024-03-02T03:11:02;6.50;99.90
7972;DHT22;4031;49.758;6.120;2024-03-02T03:13:29;6.50;99.90
7972;DHT22;4031;49.758;6.120;2024-03-02T03:15:54;6.50;99.90
7972;DHT22;4031;49.758;6.120;2024-03-02T03:18:20;6.50;99.90
7972;DHT22;4031;49.758;6.120;2024-03-02T03:20:46;6.40;99.90
7972;DHT22;4031;49.758;6.120;2024-03-02T03:23:12;6.40;99.90
7972;DHT22;4031;49.758;6.120;2024-03-02T03:25:45;6.40;99.90
7972;DHT22;4031;49.758;6.120;2024-03-02T03:28:10;6.40;99.90
7972;DHT22;4031;49.758;6.120;2024-03-02T03:30:39;6.40;99.90
7972;DHT22;4031;49.758;6.120;2024-03-02T03:33:05;6.30;99.90
7972;DHT22;4031;49.758;6.120;2024-03-02T03:35:32;6.30;99.90
7972;DHT22;4031;49.758;6.120;2024-03-02T03:37:58;6.30;99.90
7972;DHT22;4031;49.758;6.120;2024-03-02T03:40:24;6.30;99.90
7972;DHT22;4031;49.758;6.120;2024-03-02T03:42:49;6.30;99.90
7972;DHT22;4031;49.758;6.120;2024-03-02T03:45:16;6.30;99.90
7972;DHT22;4031;49.758;6.120;2024-03-02T03:47:41;6.20;99.90
7972;DHT22;4031;49.758;6.120;2024-03-02T03:50:07;6.20;99.90
7972;DHT22;4031;49.758;6.120;2024-03-02T03:52:33;6.20;99.90
7972;DHT22;4031;49.758;6.120;2024-03-02T03:55:00;6.20;99.90
7972;DHT22;4031;49.758;6.120;2024-03-02T03:57:26;6.20;99.90
7972;DHT22;4031;49.758;6.120;2024-03-02T03:59:52;6.20;99.90
7972;DHT22;4031;49.758;6.120;2024-03-02T04:02:19;6.20;99.90
7972;DHT22;4031;49.758;6.120;2024-03-02T04:04:44;6.20;99.90
7972;DHT22;4031;49.758;6.120;2024-03-02T04:07:10;6.20;99.90
7972;DHT22;4031;49.758;6.120;2024-03-02T04:09:36;6.20;99.90
7972;DHT22;4031;49.758;6.120;2024-03-02T04:12:02;6.20;99.90
7972;DHT22;4031;49.758;6.120;2024-03-02T04:14:28;6.20;99.90
7972;DHT22;4031;49.758;6.120;2024-03-02T04:16:53;6.10;99.90
7972;DHT22;4031;49.758;6.120;2024-03-02T04:19:19;6.20;99.90
7972;DHT22;4031;49.758;6.120;2024-03-02T04:21:45;6.20;99.90
7972;DHT22;4031;49.758;6.120;2024-03-02T04:24:11;6.20;99.90
7972;DHT22;4031;49.758;6.120;2024-03-02T04:26:36;6.20;99.90
7972;DHT22;4031;49.758;6.120;2024-03-02T04:29:02;6.20;99.90
7972;DHT22;4031;49.758;6.120;2024-03-02T04:31:28;6.20;99.90
7972;DHT22;4031;49.758;6.120;2024-03-02T04:33:54;6.20;99.90
7972;DHT22;4031;49.758;6.120;2024-03-02T04:36:20;6.20;99.90
7972;DHT22;4031;49.758;6.120;2024-03-02T04:38:46;6.20;99.90
7972;DHT22;4031;49.758;6.120;2024-03-02T04:41:12;6.10;99.90
7972;DHT22;4031;49.758;6.120;2024-03-02T04:43:38;6.10;99.90
7972;DHT22;4031;49.758;6.120;2024-03-02T04:46:05;6.10;99.90
7972;DHT22;4031;49.758;6.120;2024-03-02T04:48:32;6.10;99.90
7972;DHT22;4031;49.758;6.120;2024-03-02T04:50:58;6.20;99.90
7972;DHT22;4031;49.758;6.120;2024-03-02T04:53:24;6.10;99.90
7972;DHT22;4031;49.758;6.120;2024-03-02T04:55:50;6.10;99.90
7972;DHT22;4031;49.758;6.120;2024-03-02T04:58:34;6.20;99.90
7972;DHT22;4031;49.758;6.120;2024-03-02T05:01:00;6.10;99.90
7972;DHT22;4031;49.758;6.120;2024-03-02T05:03:26;6.20;99.90
7972;DHT22;4031;49.758;6.120;2024-03-02T05:05:52;6.10;99.90
7972;DHT22;4031;49.758;6.120;2024-03-02T05:08:17;6.10;99.90
7972;DHT22;4031;49.758;6.120;2024-03-02T05:10:43;6.10;99.90
7972;DHT22;4031;49.758;6.120;2024-03-02T05:13:09;6.20;99.90
7972;DHT22;4031;49.758;6.120;2024-03-02T05:15:34;6.10;99.90
7972;DHT22;4031;49.758;6.120;2024-03-02T05:18:00;6.10;99.90
7972;DHT22;4031;49.758;6.120;2024-03-02T05:20:28;6.10;99.90
7972;DHT22;4031;49.758;6.120;2024-03-02T05:22:53;6.10;99.90
7972;DHT22;4031;49.758;6.120;2024-03-02T05:25:19;6.10;99.90
7972;DHT22;4031;49.758;6.120;2024-03-02T05:27:45;6.00;99.90
7972;DHT22;4031;49.758;6.120;2024-03-02T05:30:12;6.00;99.90
7972;DHT22;4031;49.758;6.120;2024-03-02T05:32:37;6.00;99.90
7972;DHT22;4031;49.758;6.120;2024-03-02T05:35:04;6.00;99.90
7972;DHT22;4031;49.758;6.120;2024-03-02T05:37:30;5.90;99.90
7972;DHT22;4031;49.758;6.120;2024-03-02T05:39:56;5.90;99.90
7972;DHT22;4031;49.758;6.120;2024-03-02T05:42:22;5.80;99.90
7972;DHT22;4031;49.758;6.120;2024-03-02T05:44:47;5.90;99.90
7972;DHT22;4031;49.758;6.120;2024-03-02T05:47:13;5.90;99.90
7972;DHT22;4031;49.758;6.120;2024-03-02T05:49:39;5.90;99.90
7972;DHT22;4031;49.758;6.120;2024-03-02T05:52:05;5.90;99.90
7972;DHT22;4031;49.758;6.120;2024-03-02T05:54:31;5.90;99.90
7972;DHT22;4031;49.758;6.120;2024-03-02T05:56:56;5.90;99.90
7972;DHT22;4031;49.758;6.120;2024-03-02T05:59:22;5.80;99.90
7972;DHT22;4031;49.758;6.120;2024-03-02T06:01:48;5.80;99.90
7972;DHT22;4031;49.758;6.120;2024-03-02T06:04:17;5.70;99.90
7972;DHT22;4031;49.758;6.120;2024-03-02T06:06:43;5.60;99.90
7972;DHT22;4031;49.758;6.120;2024-03-02T06:09:09;5.60;99.90
7972;DHT22;4031;49.758;6.120;2024-03-02T06:11:39;5.50;99.90
7972;DHT22;4031;49.758;6.120;2024-03-02T06:14:07;5.60;99.90
7972;DHT22;4031;49.758;6.120;2024-03-02T06:16:34;5.60;99.90
7972;DHT22;4031;49.758;6.120;2024-03-02T06:19:00;5.70;99.90
7972;DHT22;4031;49.758;6.120;2024-03-02T06:21:27;5.70;99.90
7972;DHT22;4031;49.758;6.120;2024-03-02T06:23:53;5.80;99.90
7972;DHT22;4031;49.758;6.120;2024-03-02T06:26:19;5.80;99.90
7972;DHT22;4031;49.758;6.120;2024-03-02T06:28:45;5.90;99.90
7972;DHT22;4031;49.758;6.120;2024-03-02T06:31:12;5.90;99.90
7972;DHT22;4031;49.758;6.120;2024-03-02T06:33:37;5.90;99.90
7972;DHT22;4031;49.758;6.120;2024-03-02T06:36:04;6.00;99.90
7972;DHT22;4031;49.758;6.120;2024-03-02T06:38:30;6.00;99.90
7972;DHT22;4031;49.758;6.120;2024-03-02T06:40:57;6.10;99.90
7972;DHT22;4031;49.758;6.120;2024-03-02T06:43:23;6.10;99.90
7972;DHT22;4031;49.758;6.120;2024-03-02T06:45:50;6.10;99.90
7972;DHT22;4031;49.758;6.120;2024-03-02T06:48:17;6.10;99.90
7972;DHT22;4031;49.758;6.120;2024-03-02T06:50:49;6.20;99.90
7972;DHT22;4031;49.758;6.120;2024-03-02T06:53:15;6.20;99.90
7972;DHT22;4031;49.758;6.120;2024-03-02T06:55:45;6.20;99.90
7972;DHT22;4031;49.758;6.120;2024-03-02T06:58:12;6.30;99.90
7972;DHT22;4031;49.758;6.120;2024-03-02T07:00:38;6.30;99.90
7972;DHT22;4031;49.758;6.120;2024-03-02T07:03:04;6.30;99.90
7972;DHT22;4031;49.758;6.120;2024-03-02T07:05:30;6.40;99.90
7972;DHT22;4031;49.758;6.120;2024-03-02T07:07:56;6.40;99.90
7972;DHT22;4031;49.758;6.120;2024-03-02T07:10:21;6.50;99.90
7972;DHT22;4031;49.758;6.120;2024-03-02T07:12:47;6.50;99.90
7972;DHT22;4031;49.758;6.120;2024-03-02T07:15:13;6.60;99.90
7972;DHT22;4031;49.758;6.120;2024-03-02T07:17:59;6.60;99.90
7972;DHT22;4031;49.758;6.120;2024-03-02T07:20:24;6.70;99.90
7972;DHT22;4031;49.758;6.120;2024-03-02T07:22:50;6.70;99.90
7972;DHT22;4031;49.758;6.120;2024-03-02T07:25:16;6.80;99.90
7972;DHT22;4031;49.758;6.120;2024-03-02T07:27:42;6.80;99.90
7972;DHT22;4031;49.758;6.120;2024-03-02T07:30:09;6.80;99.90
7972;DHT22;4031;49.758;6.120;2024-03-02T07:32:36;6.80;99.90
7972;DHT22;4031;49.758;6.120;2024-03-02T07:35:02;6.80;99.90
7972;DHT22;4031;49.758;6.120;2024-03-02T07:37:29;6.80;99.90
7972;DHT22;4031;49.758;6.120;2024-03-02T07:39:55;6.80;99.90
7972;DHT22;4031;49.758;6.120;2024-03-02T07:42:20;6.80;99.90
7972;DHT22;4031;49.758;6.120;2024-03-02T07:44:46;6.90;99.90
7972;DHT22;4031;49.758;6.120;2024-03-02T07:47:12;6.90;99.90
7972;DHT22;4031;49.758;6.120;2024-03-02T07:49:38;6.90;99.90
7972;DHT22;4031;49.758;6.120;2024-03-02T07:52:04;7.10;99.90
7972;DHT22;4031;49.758;6.120;2024-03-02T07:54:29;7.30;99.90
7972;DHT22;4031;49.758;6.120;2024-03-02T07:56:55;7.40;99.90
7972;DHT22;4031;49.758;6.120;2024-03-02T07:59:21;7.60;99.90
7972;DHT22;4031;49.758;6.120;2024-03-02T08:01:48;7.70;99.90
7972;DHT22;4031;49.758;6.120;2024-03-02T08:04:14;7.90;99.90
7972;DHT22;4031;49.758;6.120;2024-03-02T08:06:40;8.10;99.90
7972;DHT22;4031;49.758;6.120;2024-03-02T08:09:06;8.40;99.90
7972;DHT22;4031;49.758;6.120;2024-03-02T08:11:35;8.70;99.90
7972;DHT22;4031;49.758;6.120;2024-03-02T08:14:01;8.90;99.90
7972;DHT22;4031;49.758;6.120;2024-03-02T08:16:27;9.10;99.90
7972;DHT22;4031;49.758;6.120;2024-03-02T08:18:53;9.40;99.90
7972;DHT22;4031;49.758;6.120;2024-03-02T08:21:19;9.50;99.90
7972;DHT22;4031;49.758;6.120;2024-03-02T08:23:45;9.60;99.90
7972;DHT22;4031;49.758;6.120;2024-03-02T08:26:11;9.70;99.90
7972;DHT22;4031;49.758;6.120;2024-03-02T08:28:37;9.70;99.90
7972;DHT22;4031;49.758;6.120;2024-03-02T08:31:06;9.80;99.90
7972;DHT22;4031;49.758;6.120;2024-03-02T08:33:32;10.00;99.90
7972;DHT22;4031;49.758;6.120;2024-03-02T08:35:58;10.10;99.90
7972;DHT22;4031;49.758;6.120;2024-03-02T08:38:24;10.40;99.90
7972;DHT22;4031;49.758;6.120;2024-03-02T08:40:50;10.70;99.90
7972;DHT22;4031;49.758;6.120;2024-03-02T08:43:16;10.90;99.90
7972;DHT22;4031;49.758;6.120;2024-03-02T08:45:42;11.00;99.90
7972;DHT22;4031;49.758;6.120;2024-03-02T08:48:08;10.80;99.90
7972;DHT22;4031;49.758;6.120;2024-03-02T08:50:35;10.70;99.90
7972;DHT22;4031;49.758;6.120;2024-03-02T08:53:01;11.30;99.90
7972;DHT22;4031;49.758;6.120;2024-03-02T08:55:27;11.70;99.90
7972;DHT22;4031;49.758;6.120;2024-03-02T08:57:53;11.60;99.90
7972;DHT22;4031;49.758;6.120;2024-03-02T09:00:19;11.50;99.90
7972;DHT22;4031;49.758;6.120;2024-03-02T09:02:45;11.20;99.90
7972;DHT22;4031;49.758;6.120;2024-03-02T09:05:11;10.80;99.90
7972;DHT22;4031;49.758;6.120;2024-03-02T09:07:37;10.50;99.90
7972;DHT22;4031;49.758;6.120;2024-03-02T09:10:05;10.40;99.90
7972;DHT22;4031;49.758;6.120;2024-03-02T09:12:32;10.10;99.90
7972;DHT22;4031;49.758;6.120;2024-03-02T09:14:58;10.00;99.90
7972;DHT22;4031;49.758;6.120;2024-03-02T09:17:25;10.00;99.90
7972;DHT22;4031;49.758;6.120;2024-03-02T09:19:51;10.20;99.90
7972;DHT22;4031;49.758;6.120;2024-03-02T09:22:18;10.20;99.90
7972;DHT22;4031;49.758;6.120;2024-03-02T09:24:44;10.20;99.90
7972;DHT22;4031;49.758;6.120;2024-03-02T09:27:10;10.30;99.90
7972;DHT22;4031;49.758;6.120;2024-03-02T09:29:37;10.30;99.90
7972;DHT22;4031;49.758;6.120;2024-03-02T09:32:08;10.30;99.90
7972;DHT22;4031;49.758;6.120;2024-03-02T09:34:37;10.20;99.90
7972;DHT22;4031;49.758;6.120;2024-03-02T09:37:03;10.10;99.90
7972;DHT22;4031;49.758;6.120;2024-03-02T09:39:30;9.90;99.90
7972;DHT22;4031;49.758;6.120;2024-03-02T09:41:57;9.90;99.90
7972;DHT22;4031;49.758;6.120;2024-03-02T09:44:23;10.20;99.90
7972;DHT22;4031;49.758;6.120;2024-03-02T09:46:51;10.90;99.90
7972;DHT22;4031;49.758;6.120;2024-03-02T09:49:17;11.50;99.90
7972;DHT22;4031;49.758;6.120;2024-03-02T09:51:48;11.90;99.90
7972;DHT22;4031;49.758;6.120;2024-03-02T09:54:15;11.80;99.90
7972;DHT22;4031;49.758;6.120;2024-03-02T09:56:41;11.50;99.90
7972;DHT22;4031;49.758;6.120;2024-03-02T09:59:07;11.40;99.90
7972;DHT22;4031;49.758;6.120;2024-03-02T10:01:33;11.60;99.90
7972;DHT22;4031;49.758;6.120;2024-03-02T10:04:05;11.90;99.90
7972;DHT22;4031;49.758;6.120;2024-03-02T10:06:32;12.10;99.90
7972;DHT22;4031;49.758;6.120;2024-03-02T10:08:58;12.40;99.90
7972;DHT22;4031;49.758;6.120;2024-03-02T10:11:35;12.50;99.90
7972;DHT22;4031;49.758;6.120;2024-03-02T10:14:11;12.60;99.90
7972;DHT22;4031;49.758;6.120;2024-03-02T10:19:24;12.50;99.90
7972;DHT22;4031;49.758;6.120;2024-03-02T10:21:53;12.80;99.90
7972;DHT22;4031;49.758;6.120;2024-03-02T10:24:21;13.10;99.90
7972;DHT22;4031;49.758;6.120;2024-03-02T10:26:48;13.70;99.90
7972;DHT22;4031;49.758;6.120;2024-03-02T10:29:15;14.40;99.90
7972;DHT22;4031;49.758;6.120;2024-03-02T10:31:45;14.50;99.90
7972;DHT22;4031;49.758;6.120;2024-03-02T10:34:12;14.00;99.90
7972;DHT22;4031;49.758;6.120;2024-03-02T10:36:41;13.60;99.90
7972;DHT22;4031;49.758;6.120;2024-03-02T10:39:08;13.10;99.90
7972;DHT22;4031;49.758;6.120;2024-03-02T10:41:37;12.90;99.90
7972;DHT22;4031;49.758;6.120;2024-03-02T10:44:05;12.90;99.90
7972;DHT22;4031;49.758;6.120;2024-03-02T10:46:34;13.00;99.90
7972;DHT22;4031;49.758;6.120;2024-03-02T10:49:03;13.10;99.90
7972;DHT22;4031;49.758;6.120;2024-03-02T10:51:32;12.90;99.90
7972;DHT22;4031;49.758;6.120;2024-03-02T10:53:59;12.70;99.90
7972;DHT22;4031;49.758;6.120;2024-03-02T10:56:39;12.70;99.90
7972;DHT22;4031;49.758;6.120;2024-03-02T10:59:28;12.80;99.90
7972;DHT22;4031;49.758;6.120;2024-03-02T11:01:58;12.70;99.90
7972;DHT22;4031;49.758;6.120;2024-03-02T11:04:27;12.60;99.90
7972;DHT22;4031;49.758;6.120;2024-03-02T11:07:12;12.60;99.90
7972;DHT22;4031;49.758;6.120;2024-03-02T11:09:47;12.80;99.90
7972;DHT22;4031;49.758;6.120;2024-03-02T11:12:23;12.60;99.90
7972;DHT22;4031;49.758;6.120;2024-03-02T11:14:58;12.50;99.90
7972;DHT22;4031;49.758;6.120;2024-03-02T11:17:25;12.40;99.90
7972;DHT22;4031;49.758;6.120;2024-03-02T11:19:52;12.10;99.90
7972;DHT22;4031;49.758;6.120;2024-03-02T11:22:18;12.00;99.90
7972;DHT22;4031;49.758;6.120;2024-03-02T11:24:48;12.00;99.90
7972;DHT22;4031;49.758;6.120;2024-03-02T11:27:14;12.20;99.90
7972;DHT22;4031;49.758;6.120;2024-03-02T11:33:00;12.70;99.90
7972;DHT22;4031;49.758;6.120;2024-03-02T11:35:45;13.00;99.90
7972;DHT22;4031;49.758;6.120;2024-03-02T11:38:12;13.00;99.90
7972;DHT22;4031;49.758;6.120;2024-03-02T11:40:42;13.00;99.90
7972;DHT22;4031;49.758;6.120;2024-03-02T11:43:09;13.20;99.90
7972;DHT22;4031;49.758;6.120;2024-03-02T11:45:36;13.50;99.90
7972;DHT22;4031;49.758;6.120;2024-03-02T11:48:06;13.80;99.90
7972;DHT22;4031;49.758;6.120;2024-03-02T11:50:34;14.10;99.90
7972;DHT22;4031;49.758;6.120;2024-03-02T11:53:14;14.40;99.90
7972;DHT22;4031;49.758;6.120;2024-03-02T11:55:40;14.50;99.90
7972;DHT22;4031;49.758;6.120;2024-03-02T11:58:09;14.70;99.90
7972;DHT22;4031;49.758;6.120;2024-03-02T12:00:35;15.00;99.90
7972;DHT22;4031;49.758;6.120;2024-03-02T12:03:12;15.60;99.90
7972;DHT22;4031;49.758;6.120;2024-03-02T12:05:39;15.90;99.90
7972;DHT22;4031;49.758;6.120;2024-03-02T12:08:06;16.10;99.90
7972;DHT22;4031;49.758;6.120;2024-03-02T12:10:33;16.50;99.90
7972;DHT22;4031;49.758;6.120;2024-03-02T12:13:01;16.90;99.90
7972;DHT22;4031;49.758;6.120;2024-03-02T12:15:33;17.60;99.90
7972;DHT22;4031;49.758;6.120;2024-03-02T12:18:02;17.80;99.90
7972;DHT22;4031;49.758;6.120;2024-03-02T12:20:31;17.30;99.90
7972;DHT22;4031;49.758;6.120;2024-03-02T12:22:58;16.50;99.90
7972;DHT22;4031;49.758;6.120;2024-03-02T12:25:26;15.50;99.90
7972;DHT22;4031;49.758;6.120;2024-03-02T12:27:56;14.90;99.90
7972;DHT22;4031;49.758;6.120;2024-03-02T12:30:23;14.40;99.90
7972;DHT22;4031;49.758;6.120;2024-03-02T12:32:50;14.00;99.90
7972;DHT22;4031;49.758;6.120;2024-03-02T12:35:18;13.70;99.90
7972;DHT22;4031;49.758;6.120;2024-03-02T12:37:45;13.60;99.90
7972;DHT22;4031;49.758;6.120;2024-03-02T12:40:12;13.70;99.90
7972;DHT22;4031;49.758;6.120;2024-03-02T12:42:39;14.30;99.90
7972;DHT22;4031;49.758;6.120;2024-03-02T12:45:08;15.10;99.90
7972;DHT22;4031;49.758;6.120;2024-03-02T12:47:35;16.00;99.90
7972;DHT22;4031;49.758;6.120;2024-03-02T12:50:02;16.40;99.90
7972;DHT22;4031;49.758;6.120;2024-03-02T12:52:28;16.00;99.90
7972;DHT22;4031;49.758;6.120;2024-03-02T12:54:54;15.80;99.90
7972;DHT22;4031;49.758;6.120;2024-03-02T12:57:27;15.60;99.90
7972;DHT22;4031;49.758;6.120;2024-03-02T12:59:58;15.50;99.90
7972;DHT22;4031;49.758;6.120;2024-03-02T13:02:35;15.20;99.90
7972;DHT22;4031;49.758;6.120;2024-03-02T13:05:02;15.10;99.90
7972;DHT22;4031;49.758;6.120;2024-03-02T13:07:28;14.90;99.90
7972;DHT22;4031;49.758;6.120;2024-03-02T13:09:55;14.80;99.90
7972;DHT22;4031;49.758;6.120;2024-03-02T13:12:23;14.80;99.90
7972;DHT22;4031;49.758;6.120;2024-03-02T13:14:52;14.60;99.90
7972;DHT22;4031;49.758;6.120;2024-03-02T13:17:19;14.60;99.90
7972;DHT22;4031;49.758;6.120;2024-03-02T13:19:59;14.60;99.90
7972;DHT22;4031;49.758;6.120;2024-03-02T13:22:25;14.60;99.90
7972;DHT22;4031;49.758;6.120;2024-03-02T13:24:52;14.60;99.90
7972;DHT22;4031;49.758;6.120;2024-03-02T13:27:20;14.60;99.90
7972;DHT22;4031;49.758;6.120;2024-03-02T13:29:49;14.50;99.90
7972;DHT22;4031;49.758;6.120;2024-03-02T13:32:15;14.40;99.90
7972;DHT22;4031;49.758;6.120;2024-03-02T13:34:41;14.20;99.90
7972;DHT22;4031;49.758;6.120;2024-03-02T13:37:08;14.10;99.90
7972;DHT22;4031;49.758;6.120;2024-03-02T13:39:34;14.00;99.90
7972;DHT22;4031;49.758;6.120;2024-03-02T13:42:15;14.20;99.90
7972;DHT22;4031;49.758;6.120;2024-03-02T13:44:43;14.50;99.90
7972;DHT22;4031;49.758;6.120;2024-03-02T13:47:12;14.80;99.90
7972;DHT22;4031;49.758;6.120;2024-03-02T13:49:38;15.00;99.90
7972;DHT22;4031;49.758;6.120;2024-03-02T13:52:09;15.10;99.90
7972;DHT22;4031;49.758;6.120;2024-03-02T13:54:43;15.00;99.90
7972;DHT22;4031;49.758;6.120;2024-03-02T13:57:11;15.00;99.90
7972;DHT22;4031;49.758;6.120;2024-03-02T13:59:38;15.00;99.90
7972;DHT22;4031;49.758;6.120;2024-03-02T14:02:07;14.90;99.90
7972;DHT22;4031;49.758;6.120;2024-03-02T14:04:34;14.80;99.90
7972;DHT22;4031;49.758;6.120;2024-03-02T14:07:01;15.00;99.90
7972;DHT22;4031;49.758;6.120;2024-03-02T14:09:27;15.10;99.90
7972;DHT22;4031;49.758;6.120;2024-03-02T14:11:54;15.40;99.90
7972;DHT22;4031;49.758;6.120;2024-03-02T14:14:21;15.20;99.90
7972;DHT22;4031;49.758;6.120;2024-03-02T14:16:46;14.90;99.90
7972;DHT22;4031;49.758;6.120;2024-03-02T14:19:12;14.40;99.90
7972;DHT22;4031;49.758;6.120;2024-03-02T14:21:41;14.00;99.90
7972;DHT22;4031;49.758;6.120;2024-03-02T14:24:07;13.70;99.90
7972;DHT22;4031;49.758;6.120;2024-03-02T14:26:34;13.50;99.90
7972;DHT22;4031;49.758;6.120;2024-03-02T14:29:00;13.30;99.90
7972;DHT22;4031;49.758;6.120;2024-03-02T14:31:29;13.10;99.90
7972;DHT22;4031;49.758;6.120;2024-03-02T14:33:56;13.10;99.90
7972;DHT22;4031;49.758;6.120;2024-03-02T14:36:22;13.10;99.90
7972;DHT22;4031;49.758;6.120;2024-03-02T14:38:48;13.00;99.90
7972;DHT22;4031;49.758;6.120;2024-03-02T14:41:14;12.90;99.90
7972;DHT22;4031;49.758;6.120;2024-03-02T14:43:40;12.80;99.90
7972;DHT22;4031;49.758;6.120;2024-03-02T14:46:06;12.70;99.90
7972;DHT22;4031;49.758;6.120;2024-03-02T14:48:38;12.60;99.90
7972;DHT22;4031;49.758;6.120;2024-03-02T14:51:04;12.50;99.90
7972;DHT22;4031;49.758;6.120;2024-03-02T14:53:30;12.50;99.90
7972;DHT22;4031;49.758;6.120;2024-03-02T14:55:56;12.40;99.90
7972;DHT22;4031;49.758;6.120;2024-03-02T14:58:22;12.50;99.90
7972;DHT22;4031;49.758;6.120;2024-03-02T15:00:47;12.50;99.90
7972;DHT22;4031;49.758;6.120;2024-03-02T15:03:13;12.60;99.90
7972;DHT22;4031;49.758;6.120;2024-03-02T15:05:39;12.60;99.90
7972;DHT22;4031;49.758;6.120;2024-03-02T15:08:06;12.60;99.90
7972;DHT22;4031;49.758;6.120;2024-03-02T15:10:32;12.60;99.90
7972;DHT22;4031;49.758;6.120;2024-03-02T15:12:58;12.70;99.90
7972;DHT22;4031;49.758;6.120;2024-03-02T15:15:24;12.70;99.90
7972;DHT22;4031;49.758;6.120;2024-03-02T15:17:50;12.80;99.90
7972;DHT22;4031;49.758;6.120;2024-03-02T15:20:16;12.90;99.90
7972;DHT22;4031;49.758;6.120;2024-03-02T15:22:42;13.10;99.90
7972;DHT22;4031;49.758;6.120;2024-03-02T15:25:08;13.20;99.90
7972;DHT22;4031;49.758;6.120;2024-03-02T15:27:34;13.40;99.90
7972;DHT22;4031;49.758;6.120;2024-03-02T15:30:00;13.40;99.90
7972;DHT22;4031;49.758;6.120;2024-03-02T15:32:26;13.30;99.90
7972;DHT22;4031;49.758;6.120;2024-03-02T15:34:53;13.20;99.90
7972;DHT22;4031;49.758;6.120;2024-03-02T15:37:19;13.00;99.90
7972;DHT22;4031;49.758;6.120;2024-03-02T15:39:44;12.90;99.90
7972;DHT22;4031;49.758;6.120;2024-03-02T15:42:10;12.80;99.90
7972;DHT22;4031;49.758;6.120;2024-03-02T15:44:36;12.90;99.90
7972;DHT22;4031;49.758;6.120;2024-03-02T15:47:02;12.70;99.90
7972;DHT22;4031;49.758;6.120;2024-03-02T15:49:28;12.70;99.90
7972;DHT22;4031;49.758;6.120;2024-03-02T15:51:54;12.80;99.90
7972;DHT22;4031;49.758;6.120;2024-03-02T15:54:20;12.80;99.90
7972;DHT22;4031;49.758;6.120;2024-03-02T15:56:46;12.70;99.90
7972;DHT22;4031;49.758;6.120;2024-03-02T15:59:12;12.70;99.90
7972;DHT22;4031;49.758;6.120;2024-03-02T16:01:37;12.70;99.90
7972;DHT22;4031;49.758;6.120;2024-03-02T16:04:03;12.50;99.90
7972;DHT22;4031;49.758;6.120;2024-03-02T16:06:29;12.40;99.90
7972;DHT22;4031;49.758;6.120;2024-03-02T16:08:55;12.20;99.90
7972;DHT22;4031;49.758;6.120;2024-03-02T16:11:22;12.00;99.90
7972;DHT22;4031;49.758;6.120;2024-03-02T16:13:48;11.70;99.90
7972;DHT22;4031;49.758;6.120;2024-03-02T16:16:14;11.40;99.90
7972;DHT22;4031;49.758;6.120;2024-03-02T16:18:40;11.00;99.90